• Join FlightAware (Why Join?)
  • Login
  • US Flag 
06:38PM EDT


 

Airport Tracker/Info


-or-


 

Live Flight TrackerFlight Track Log ✈ KAP444 ✈ 07-May-2013 ✈ KOGS - KALB

Flight Track Log - Related Links

Times and Time Zones

All times are in EDT time to prevent confusion due to time zone crossing. See the KAP444 flight status page for this flight to view local times or setup timezone preferences in your user account.

Time Position Orientation Groundspeed Altitude Reporting Facility
EDT Latitude Longitude Course Direction KTS MPH feet Rate Location/Type
07:27AM 44.5369 -75.1922 150° Southeast 143 165 6,400  Level Boston Center
07:28AM 44.5019 -75.1644 150° Southeast 143 165 7,200 540 Climbing Boston Center
07:29AM 44.4631 -75.1394 155° Southeast 143 165 7,500 120 Climbing Boston Center
07:30AM 44.4242 -75.1058 148° Southeast 155 178 7,500  Level Boston Center
07:31AM 44.3833 -75.0778 154° Southeast 160 184 7,500  Level Boston Center
07:32AM 44.3444 -75.0411 146° Southeast 160 184 7,500  Level Boston Center
07:33AM 44.3014 -75.0075 151° Southeast 165 190 7,500  Level Boston Center
07:34AM 44.2583 -74.9764 153° Southeast 171 197 7,500  Level Boston Center
07:35AM 44.2175 -74.9458 152° Southeast 171 197 7,500  Level Boston Center
07:36AM 44.1744 -74.9092 149° Southeast 171 197 7,500  Level Boston Center
07:37AM 44.1333 -74.8786 152° Southeast 176 203 7,500  Level Boston Center
07:38AM 44.0903 -74.8422 149° Southeast 176 203 7,500  Level Boston Center
07:39AM 44.0514 -74.8089 148° Southeast 176 203 7,500  Level Boston Center
07:40AM 44.0083 -74.7783 153° Southeast 176 203 7,500  Level Boston Center
07:41AM 43.9672 -74.7450 150° Southeast 176 203 7,500  Level Boston Center
07:42AM 43.9264 -74.7117 150° Southeast 176 203 7,500  Level Boston Center
07:43AM 43.8831 -74.6811 153° Southeast 176 203 7,500  Level Boston Center
07:44AM 43.8422 -74.6481 150° Southeast 176 203 7,500  Level Boston Center
07:45AM 43.7989 -74.6119 149° Southeast 176 203 7,500  Level Boston Center
07:46AM 43.7581 -74.5789 150° Southeast 176 203 7,500  Level Boston Center
07:47AM 43.7147 -74.5486 153° Southeast 176 203 7,500  Level Boston Center
07:48AM 43.6736 -74.5125 148° Southeast 176 203 7,500  Level Boston Center
07:49AM 43.6325 -74.4825 152° Southeast 176 203 7,500  Level Boston Center
07:50AM 43.5875 -74.4467 150° Southeast 176 203 7,500  Level Boston Center
07:51AM 43.5464 -74.4136 150° Southeast 176 203 7,500  Level Boston Center
07:52AM 43.5031 -74.3808 151° Southeast 176 203 7,500  Level Boston Center
07:53AM 43.4597 -74.3481 151° Southeast 181 208 7,500  Level Boston Center
07:54AM 43.4392 -74.3358 157° South 176 203 7,500  Level Boston Center
07:54AM 43.4186 -74.3153 144° Southeast 181 208 7,500  Level Boston Center
07:55AM 43.4022 -74.3033 152° Southeast 175 201 7,500  Level Boston Center
07:55AM 43.3756 -74.2797 147° Southeast 181 208 7,500  Level Boston Center
07:56AM 43.3589 -74.2706 158° South 174 200 7,500  Level Boston Center
07:56AM 43.3425 -74.2558 147° Southeast 181 208 7,500  Level Boston Center
07:57AM 43.3219 -74.2408 152° Southeast 174 200 7,500  Level Boston Center
07:57AM 43.2994 -74.2203 146° Southeast 181 208 7,500 -120 Level Boston Center
07:58AM 43.2808 -74.2083 155° Southeast 172 198 7,400 -300 Descending Boston Center
07:58AM 43.2583 -74.1819 139° Southeast 175 201 7,200 -300 Descending Boston Center
07:59AM 43.2419 -74.1672 147° Southeast 174 200 7,100 -540 Descending Boston Center
07:59AM 43.2153 -74.1325 136° Southeast 175 201 6,700 -600 Descending Boston Center
08:00AM 43.2028 -74.1233 152° Southeast 181 208 6,500 -600 Descending Boston Center
08:00AM 43.1761 -74.0972 144° Southeast 180 207 6,100 -720 Descending Boston Center
08:01AM 43.1597 -74.0881 158° South 190 219 5,800 -720 Descending Boston Center
08:01AM 43.1267 -74.0589 147° Southeast 191 220 5,400 -600 Descending Boston Center
08:02AM 43.1142 -74.0528 160° South 188 216 5,200 -600 Descending Boston Center
08:02AM 43.0856 -74.0264 146° Southeast 191 220 4,800 -660 Descending Boston Center
08:03AM 43.0731 -74.0203 160° South 186 214 4,600 -840 Descending Boston Center
08:03AM 43.0358 -73.9883 148° Southeast 185 213 4,000 -840 Descending Boston Center
08:04AM 43.0256 -73.9794 148° Southeast 191 220 3,800 -720 Descending Boston Center
08:04AM 42.9947 -73.9531 148° Southeast 185 213 3,300 -720 Descending Boston Center
08:05AM 42.9803 -73.9414 149° Southeast 198 228 3,100 -600 Descending Boston Center
08:05AM 42.9453 -73.9064 144° Southeast 185 213 2,700 -540 Descending Boston Center
08:06AM 42.9308 -73.8919 144° Southeast 187 215 2,500 -540 Descending Boston Center
08:06AM 42.9103 -73.8717 144° Southeast 191 220 2,200 -600 Descending Boston Center
08:07AM 42.8897 -73.8542 148° Southeast 183 211 1,900 -420 Descending Boston Center
08:07AM 42.8692 -73.8394 152° Southeast 191 220 1,800 -120 Descending Boston Center
08:08AM 42.8464 -73.8219 151° Southeast 175 201 1,800 2,160 Level Boston Center
08:08AM 42.8533 -73.7600 81° East 162 186 4,000 -540 Climbing Boston Center
08:09AM 42.8069 -73.8097 218° Southwest 142 163 1,300 -2,520 Descending Boston Center
08:10AM 42.7756 -73.8064 176° South 102 117 700 -720 Descending Boston Center
08:12AM 42.7491 -73.8020 160° South  Level Estimated
08:19AM 42.7491 -73.8020 160° South  Level Estimated
08:20AM 42.7491 -73.8020 160° South  Level Estimated
08:21AM 42.7491 -73.8020 160° South  Level Estimated